sensor_id;sensor_type;location;lat;lon;timestamp;pressure;altitude;pressure_sealevel;temperature;humidity
74798;BME280;63326;45.088;7.658;2023-04-03T00:01:04;98451.09;;;12.49;40.78
74798;BME280;63326;45.088;7.658;2023-04-03T00:03:31;98446.75;;;12.48;41.09
74798;BME280;63326;45.088;7.658;2023-04-03T00:05:58;98444.16;;;12.33;41.39
74798;BME280;63326;45.088;7.658;2023-04-03T00:08:24;98438.66;;;12.13;41.80
74798;BME280;63326;45.088;7.658;2023-04-03T00:10:51;98440.06;;;12.02;41.90
74798;BME280;63326;45.088;7.658;2023-04-03T00:13:18;98446.03;;;11.98;42.19
74798;BME280;63326;45.088;7.658;2023-04-03T00:15:44;98445.47;;;12.09;42.09
74798;BME280;63326;45.088;7.658;2023-04-03T00:18:11;98439.22;;;12.02;42.49
74798;BME280;63326;45.088;7.658;2023-04-03T00:20:38;98443.09;;;11.93;42.53
74798;BME280;63326;45.088;7.658;2023-04-03T00:23:05;98433.16;;;11.65;43.24
74798;BME280;63326;45.088;7.658;2023-04-03T00:25:32;98435.50;;;11.53;43.78
74798;BME280;63326;45.088;7.658;2023-04-03T00:27:58;98441.28;;;11.50;43.64
74798;BME280;63326;45.088;7.658;2023-04-03T00:30:25;98432.97;;;11.45;43.52
74798;BME280;63326;45.088;7.658;2023-04-03T00:32:53;98438.97;;;11.47;43.83
74798;BME280;63326;45.088;7.658;2023-04-03T00:35:20;98440.94;;;11.60;43.49
74798;BME280;63326;45.088;7.658;2023-04-03T00:37:50;98437.63;;;11.58;43.58
74798;BME280;63326;45.088;7.658;2023-04-03T00:40:17;98424.59;;;11.55;43.24
74798;BME280;63326;45.088;7.658;2023-04-03T00:42:45;98426.06;;;11.58;43.30
74798;BME280;63326;45.088;7.658;2023-04-03T00:45:40;98428.53;;;11.59;43.46
74798;BME280;63326;45.088;7.658;2023-04-03T00:48:11;98427.03;;;11.50;43.57
74798;BME280;63326;45.088;7.658;2023-04-03T00:50:41;98422.41;;;11.44;43.89
74798;BME280;63326;45.088;7.658;2023-04-03T00:53:12;98421.97;;;11.40;43.90
74798;BME280;63326;45.088;7.658;2023-04-03T00:55:41;98396.91;;;11.33;43.93
74798;BME280;63326;45.088;7.658;2023-04-03T00:58:08;98419.72;;;11.44;44.29
74798;BME280;63326;45.088;7.658;2023-04-03T01:00:38;98429.19;;;11.40;44.33
74798;BME280;63326;45.088;7.658;2023-04-03T01:03:07;98417.34;;;11.28;44.70
74798;BME280;63326;45.088;7.658;2023-04-03T01:05:36;98414.56;;;11.21;45.14
74798;BME280;63326;45.088;7.658;2023-04-03T01:08:05;98409.41;;;11.19;45.09
74798;BME280;63326;45.088;7.658;2023-04-03T01:10:35;98416.31;;;11.29;44.22
74798;BME280;63326;45.088;7.658;2023-04-03T01:13:21;98419.75;;;11.22;44.84
74798;BME280;63326;45.088;7.658;2023-04-03T01:15:49;98418.78;;;11.30;45.11
74798;BME280;63326;45.088;7.658;2023-04-03T01:18:16;98417.19;;;11.36;44.97
74798;BME280;63326;45.088;7.658;2023-04-03T01:20:46;98419.88;;;11.36;44.56
74798;BME280;63326;45.088;7.658;2023-04-03T01:23:36;98413.41;;;11.30;44.51
74798;BME280;63326;45.088;7.658;2023-04-03T01:26:05;98408.84;;;11.24;44.02
74798;BME280;63326;45.088;7.658;2023-04-03T01:28:34;98406.31;;;11.22;44.64
74798;BME280;63326;45.088;7.658;2023-04-03T01:33:59;98403.72;;;11.29;42.74
74798;BME280;63326;45.088;7.658;2023-04-03T01:36:30;98400.84;;;11.31;44.09
74798;BME280;63326;45.088;7.658;2023-04-03T01:38:58;98409.34;;;11.34;44.24
74798;BME280;63326;45.088;7.658;2023-04-03T01:41:27;98405.97;;;11.25;44.61
74798;BME280;63326;45.088;7.658;2023-04-03T01:44:00;98390.88;;;11.24;45.15
74798;BME280;63326;45.088;7.658;2023-04-03T01:46:27;98400.31;;;11.20;45.61
74798;BME280;63326;45.088;7.658;2023-04-03T01:48:53;98401.28;;;11.13;46.09
74798;BME280;63326;45.088;7.658;2023-04-03T01:51:20;98405.50;;;11.01;46.09
74798;BME280;63326;45.088;7.658;2023-04-03T01:53:47;98394.84;;;11.07;46.22
74798;BME280;63326;45.088;7.658;2023-04-03T01:56:14;98384.63;;;10.96;46.19
74798;BME280;63326;45.088;7.658;2023-04-03T01:58:40;98384.00;;;10.94;46.36
74798;BME280;63326;45.088;7.658;2023-04-03T02:01:07;98400.91;;;10.94;46.63
74798;BME280;63326;45.088;7.658;2023-04-03T02:03:34;98397.91;;;11.04;45.41
74798;BME280;63326;45.088;7.658;2023-04-03T02:06:01;98397.84;;;10.98;46.31
74798;BME280;63326;45.088;7.658;2023-04-03T02:08:27;98391.84;;;10.95;46.01
74798;BME280;63326;45.088;7.658;2023-04-03T02:10:54;98393.03;;;10.93;46.48
74798;BME280;63326;45.088;7.658;2023-04-03T02:13:21;98390.53;;;10.91;45.92
74798;BME280;63326;45.088;7.658;2023-04-03T02:15:48;98391.53;;;10.84;46.40
74798;BME280;63326;45.088;7.658;2023-04-03T02:18:16;98393.72;;;10.80;46.86
74798;BME280;63326;45.088;7.658;2023-04-03T02:20:42;98390.41;;;10.78;45.96
74798;BME280;63326;45.088;7.658;2023-04-03T02:23:10;98384.97;;;10.72;45.62
74798;BME280;63326;45.088;7.658;2023-04-03T02:25:36;98386.56;;;10.66;47.26
74798;BME280;63326;45.088;7.658;2023-04-03T02:28:05;98391.34;;;10.71;47.95
74798;BME280;63326;45.088;7.658;2023-04-03T02:30:31;98398.50;;;10.63;48.09
74798;BME280;63326;45.088;7.658;2023-04-03T02:32:58;98381.53;;;10.42;48.30
74798;BME280;63326;45.088;7.658;2023-04-03T02:35:26;98398.72;;;10.47;48.96
74798;BME280;63326;45.088;7.658;2023-04-03T02:37:55;98404.34;;;10.52;47.97
74798;BME280;63326;45.088;7.658;2023-04-03T02:40:22;98396.25;;;10.31;49.26
74798;BME280;63326;45.088;7.658;2023-04-03T02:42:49;98392.66;;;10.24;48.91
74798;BME280;63326;45.088;7.658;2023-04-03T02:45:17;98394.66;;;10.07;50.16
74798;BME280;63326;45.088;7.658;2023-04-03T02:47:44;98363.72;;;10.04;49.31
74798;BME280;63326;45.088;7.658;2023-04-03T02:50:11;98379.16;;;10.02;49.93
74798;BME280;63326;45.088;7.658;2023-04-03T02:52:38;98378.97;;;9.89;51.03
74798;BME280;63326;45.088;7.658;2023-04-03T02:55:05;98387.44;;;9.78;50.23
74798;BME280;63326;45.088;7.658;2023-04-03T02:57:32;98361.78;;;9.69;50.74
74798;BME280;63326;45.088;7.658;2023-04-03T02:59:59;98378.28;;;9.58;51.03
74798;BME280;63326;45.088;7.658;2023-04-03T03:02:26;98383.72;;;9.49;51.58
74798;BME280;63326;45.088;7.658;2023-04-03T03:04:52;98359.09;;;9.16;51.30
74798;BME280;63326;45.088;7.658;2023-04-03T03:07:19;98370.72;;;9.46;51.58
74798;BME280;63326;45.088;7.658;2023-04-03T03:09:46;98353.69;;;9.24;50.85
74798;BME280;63326;45.088;7.658;2023-04-03T03:12:12;98342.03;;;9.03;51.02
74798;BME280;63326;45.088;7.658;2023-04-03T03:14:39;98353.41;;;8.97;51.46
74798;BME280;63326;45.088;7.658;2023-04-03T03:17:07;98376.22;;;9.07;51.98
74798;BME280;63326;45.088;7.658;2023-04-03T03:19:34;98345.94;;;8.92;51.41
74798;BME280;63326;45.088;7.658;2023-04-03T03:22:01;98372.88;;;8.90;52.62
74798;BME280;63326;45.088;7.658;2023-04-03T03:24:27;98355.31;;;8.88;51.42
74798;BME280;63326;45.088;7.658;2023-04-03T03:26:54;98362.22;;;8.82;51.75
74798;BME280;63326;45.088;7.658;2023-04-03T03:29:21;98374.53;;;8.91;51.70
74798;BME280;63326;45.088;7.658;2023-04-03T03:31:47;98354.13;;;8.68;52.18
74798;BME280;63326;45.088;7.658;2023-04-03T03:34:14;98366.78;;;8.74;53.00
74798;BME280;63326;45.088;7.658;2023-04-03T03:36:41;98362.28;;;8.74;52.54
74798;BME280;63326;45.088;7.658;2023-04-03T03:39:08;98355.50;;;8.63;52.46
74798;BME280;63326;45.088;7.658;2023-04-03T03:41:34;98357.75;;;8.52;52.40
74798;BME280;63326;45.088;7.658;2023-04-03T03:44:02;98352.81;;;8.41;53.19
74798;BME280;63326;45.088;7.658;2023-04-03T03:46:31;98356.44;;;8.48;53.12
74798;BME280;63326;45.088;7.658;2023-04-03T03:48:57;98358.41;;;8.54;52.61
74798;BME280;63326;45.088;7.658;2023-04-03T03:51:24;98352.03;;;8.55;52.60
74798;BME280;63326;45.088;7.658;2023-04-03T03:53:51;98352.81;;;8.41;52.34
74798;BME280;63326;45.088;7.658;2023-04-03T03:56:19;98355.50;;;8.32;52.72
74798;BME280;63326;45.088;7.658;2023-04-03T03:58:46;98357.19;;;8.25;52.52
74798;BME280;63326;45.088;7.658;2023-04-03T04:01:13;98356.19;;;8.26;52.27
74798;BME280;63326;45.088;7.658;2023-04-03T04:03:44;98356.19;;;8.26;52.56
74798;BME280;63326;45.088;7.658;2023-04-03T04:06:16;98356.53;;;8.23;52.98
74798;BME280;63326;45.088;7.658;2023-04-03T04:08:42;98357.69;;;8.29;52.83
74798;BME280;63326;45.088;7.658;2023-04-03T04:11:12;98350.50;;;8.29;52.32
74798;BME280;63326;45.088;7.658;2023-04-03T04:13:40;98357.53;;;8.22;52.89
74798;BME280;63326;45.088;7.658;2023-04-03T04:16:08;98358.91;;;8.18;53.31
74798;BME280;63326;45.088;7.658;2023-04-03T04:18:36;98360.41;;;8.21;53.00
74798;BME280;63326;45.088;7.658;2023-04-03T04:21:02;98348.88;;;8.20;52.58
74798;BME280;63326;45.088;7.658;2023-04-03T04:23:30;98334.78;;;8.03;52.34
74798;BME280;63326;45.088;7.658;2023-04-03T04:25:58;98345.91;;;8.07;52.85
74798;BME280;63326;45.088;7.658;2023-04-03T04:28:27;98349.56;;;8.14;52.41
74798;BME280;63326;45.088;7.658;2023-04-03T04:30:56;98338.47;;;8.33;50.76
74798;BME280;63326;45.088;7.658;2023-04-03T04:33:25;98347.53;;;8.16;51.69
74798;BME280;63326;45.088;7.658;2023-04-03T04:35:53;98340.28;;;8.33;52.20
74798;BME280;63326;45.088;7.658;2023-04-03T04:38:20;98341.50;;;8.30;51.90
74798;BME280;63326;45.088;7.658;2023-04-03T04:40:49;98353.72;;;8.56;50.90
74798;BME280;63326;45.088;7.658;2023-04-03T04:43:16;98344.94;;;8.70;50.54
74798;BME280;63326;45.088;7.658;2023-04-03T04:45:45;98335.41;;;8.68;49.43
74798;BME280;63326;45.088;7.658;2023-04-03T04:48:13;98337.41;;;8.74;49.37
74798;BME280;63326;45.088;7.658;2023-04-03T04:50:40;98339.59;;;8.70;50.38
74798;BME280;63326;45.088;7.658;2023-04-03T04:53:07;98340.25;;;8.72;48.83
74798;BME280;63326;45.088;7.658;2023-04-03T04:55:35;98342.28;;;8.70;50.03
74798;BME280;63326;45.088;7.658;2023-04-03T04:58:02;98340.31;;;8.64;50.27
74798;BME280;63326;45.088;7.658;2023-04-03T05:00:29;98339.25;;;8.73;49.65
74798;BME280;63326;45.088;7.658;2023-04-03T05:02:55;98292.50;;;8.46;49.10
74798;BME280;63326;45.088;7.658;2023-04-03T05:05:23;98298.66;;;8.47;48.70
74798;BME280;63326;45.088;7.658;2023-04-03T05:07:50;98348.56;;;8.77;48.62
74798;BME280;63326;45.088;7.658;2023-04-03T05:10:17;98325.31;;;8.55;50.01
74798;BME280;63326;45.088;7.658;2023-04-03T05:12:44;98337.81;;;8.62;49.29
74798;BME280;63326;45.088;7.658;2023-04-03T05:15:11;98343.75;;;8.73;48.69
74798;BME280;63326;45.088;7.658;2023-04-03T05:17:38;98355.41;;;8.80;48.74
74798;BME280;63326;45.088;7.658;2023-04-03T05:20:08;98350.53;;;8.83;47.18
74798;BME280;63326;45.088;7.658;2023-04-03T05:22:35;98339.69;;;8.77;49.08
74798;BME280;63326;45.088;7.658;2023-04-03T05:25:06;98357.09;;;8.95;49.01
74798;BME280;63326;45.088;7.658;2023-04-03T05:27:35;98353.25;;;8.98;48.60
74798;BME280;63326;45.088;7.658;2023-04-03T05:30:03;98350.28;;;8.93;47.38
74798;BME280;63326;45.088;7.658;2023-04-03T05:32:32;98348.72;;;8.99;47.30
74798;BME280;63326;45.088;7.658;2023-04-03T05:35:11;98358.06;;;9.03;47.55
74798;BME280;63326;45.088;7.658;2023-04-03T05:37:39;98358.53;;;9.06;46.50
74798;BME280;63326;45.088;7.658;2023-04-03T05:40:07;98346.16;;;9.05;46.55
74798;BME280;63326;45.088;7.658;2023-04-03T05:42:36;98371.28;;;9.19;46.89
74798;BME280;63326;45.088;7.658;2023-04-03T05:45:03;98352.94;;;9.16;46.57
74798;BME280;63326;45.088;7.658;2023-04-03T05:47:30;98359.22;;;9.23;47.61
74798;BME280;63326;45.088;7.658;2023-04-03T05:49:58;98357.38;;;9.23;47.81
74798;BME280;63326;45.088;7.658;2023-04-03T05:52:29;98347.59;;;9.16;49.27
74798;BME280;63326;45.088;7.658;2023-04-03T05:54:57;98352.41;;;9.35;47.86
74798;BME280;63326;45.088;7.658;2023-04-03T05:57:26;98326.19;;;9.16;47.86
74798;BME280;63326;45.088;7.658;2023-04-03T05:59:53;98365.25;;;9.40;47.33
74798;BME280;63326;45.088;7.658;2023-04-03T06:02:22;98362.69;;;9.46;46.86
74798;BME280;63326;45.088;7.658;2023-04-03T06:04:50;98355.56;;;9.39;46.31
74798;BME280;63326;45.088;7.658;2023-04-03T06:07:20;98372.19;;;9.49;45.69
74798;BME280;63326;45.088;7.658;2023-04-03T06:09:50;98359.47;;;9.51;46.82
74798;BME280;63326;45.088;7.658;2023-04-03T06:12:18;98377.66;;;9.56;45.85
74798;BME280;63326;45.088;7.658;2023-04-03T06:14:45;98371.09;;;9.58;47.03
74798;BME280;63326;45.088;7.658;2023-04-03T06:17:16;98379.59;;;9.62;46.78
74798;BME280;63326;45.088;7.658;2023-04-03T06:19:45;98369.06;;;9.60;47.50
74798;BME280;63326;45.088;7.658;2023-04-03T06:22:12;98384.03;;;9.69;47.59
74798;BME280;63326;45.088;7.658;2023-04-03T06:24:39;98377.13;;;9.75;47.79
74798;BME280;63326;45.088;7.658;2023-04-03T06:27:06;98372.41;;;9.77;46.56
74798;BME280;63326;45.088;7.658;2023-04-03T06:29:33;98362.06;;;9.74;47.12
74798;BME280;63326;45.088;7.658;2023-04-03T06:32:00;98379.63;;;9.91;46.71
74798;BME280;63326;45.088;7.658;2023-04-03T06:34:27;98380.47;;;9.92;46.96
74798;BME280;63326;45.088;7.658;2023-04-03T06:36:53;98370.56;;;9.92;46.45
74798;BME280;63326;45.088;7.658;2023-04-03T06:39:21;98379.31;;;10.01;46.49
74798;BME280;63326;45.088;7.658;2023-04-03T06:41:49;98369.47;;;10.01;45.96
74798;BME280;63326;45.088;7.658;2023-04-03T06:44:22;98375.72;;;10.08;45.74
74798;BME280;63326;45.088;7.658;2023-04-03T06:46:49;98377.88;;;10.13;45.82
74798;BME280;63326;45.088;7.658;2023-04-03T06:49:15;98383.66;;;10.17;45.98
74798;BME280;63326;45.088;7.658;2023-04-03T06:51:42;98381.31;;;10.22;45.70
74798;BME280;63326;45.088;7.658;2023-04-03T06:54:09;98386.09;;;10.26;45.67
74798;BME280;63326;45.088;7.658;2023-04-03T06:56:36;98376.84;;;10.29;45.66
74798;BME280;63326;45.088;7.658;2023-04-03T06:59:03;98386.06;;;10.41;45.43
74798;BME280;63326;45.088;7.658;2023-04-03T07:01:30;98394.81;;;10.50;45.32
74798;BME280;63326;45.088;7.658;2023-04-03T07:03:58;98392.44;;;10.55;44.47
74798;BME280;63326;45.088;7.658;2023-04-03T07:06:24;98388.53;;;10.57;44.06
74798;BME280;63326;45.088;7.658;2023-04-03T07:08:55;98378.91;;;10.63;44.08
74798;BME280;63326;45.088;7.658;2023-04-03T07:11:22;98382.19;;;10.80;43.95
74798;BME280;63326;45.088;7.658;2023-04-03T07:13:49;98374.22;;;11.08;43.59
74798;BME280;63326;45.088;7.658;2023-04-03T07:16:16;98383.16;;;11.43;42.97
74798;BME280;63326;45.088;7.658;2023-04-03T07:18:44;98381.22;;;11.79;42.44
74798;BME280;63326;45.088;7.658;2023-04-03T07:21:11;98369.63;;;12.07;42.84
74798;BME280;63326;45.088;7.658;2023-04-03T07:23:38;98363.69;;;12.25;43.61
74798;BME280;63326;45.088;7.658;2023-04-03T07:26:05;98379.97;;;12.58;43.31
74798;BME280;63326;45.088;7.658;2023-04-03T07:28:32;98380.25;;;12.89;41.75
74798;BME280;63326;45.088;7.658;2023-04-03T07:31:00;98386.56;;;13.30;39.94
74798;BME280;63326;45.088;7.658;2023-04-03T07:33:27;98369.75;;;13.87;39.29
74798;BME280;63326;45.088;7.658;2023-04-03T07:35:54;98375.78;;;14.54;38.25
74798;BME280;63326;45.088;7.658;2023-04-03T07:38:21;98371.28;;;15.17;36.47
74798;BME280;63326;45.088;7.658;2023-04-03T07:40:49;98371.66;;;15.77;34.11
74798;BME280;63326;45.088;7.658;2023-04-03T07:43:17;98362.50;;;16.33;32.66
74798;BME280;63326;45.088;7.658;2023-04-03T07:45:44;98363.63;;;16.81;31.14
74798;BME280;63326;45.088;7.658;2023-04-03T07:48:12;98356.63;;;17.03;29.13
74798;BME280;63326;45.088;7.658;2023-04-03T07:50:42;98365.00;;;17.67;28.83
74798;BME280;63326;45.088;7.658;2023-04-03T07:53:09;98368.22;;;17.99;26.96
74798;BME280;63326;45.088;7.658;2023-04-03T07:55:36;98364.56;;;17.70;25.61
74798;BME280;63326;45.088;7.658;2023-04-03T07:58:14;98363.72;;;18.04;25.63
74798;BME280;63326;45.088;7.658;2023-04-03T08:00:42;98369.03;;;18.23;24.84
74798;BME280;63326;45.088;7.658;2023-04-03T08:03:10;98370.94;;;18.74;24.72
74798;BME280;63326;45.088;7.658;2023-04-03T08:05:43;98373.72;;;18.79;24.11
74798;BME280;63326;45.088;7.658;2023-04-03T08:08:12;98352.94;;;19.13;24.04
74798;BME280;63326;45.088;7.658;2023-04-03T08:10:39;98360.91;;;19.65;23.73
74798;BME280;63326;45.088;7.658;2023-04-03T08:13:07;98362.06;;;20.08;22.63
74798;BME280;63326;45.088;7.658;2023-04-03T08:15:34;98352.16;;;20.57;21.70
74798;BME280;63326;45.088;7.658;2023-04-03T08:18:02;98357.28;;;20.54;20.93
74798;BME280;63326;45.088;7.658;2023-04-03T08:20:28;98354.63;;;20.20;21.67
74798;BME280;63326;45.088;7.658;2023-04-03T08:22:55;98357.81;;;20.78;21.45
74798;BME280;63326;45.088;7.658;2023-04-03T08:25:22;98352.38;;;21.05;20.96
74798;BME280;63326;45.088;7.658;2023-04-03T08:27:49;98356.78;;;21.33;20.83
74798;BME280;63326;45.088;7.658;2023-04-03T08:30:15;98353.81;;;21.71;20.17
74798;BME280;63326;45.088;7.658;2023-04-03T08:32:42;98363.19;;;21.85;19.84
74798;BME280;63326;45.088;7.658;2023-04-03T08:35:10;98347.09;;;22.26;18.74
74798;BME280;63326;45.088;7.658;2023-04-03T08:37:37;98358.81;;;21.79;18.78
74798;BME280;63326;45.088;7.658;2023-04-03T08:40:06;98348.69;;;21.43;18.91
74798;BME280;63326;45.088;7.658;2023-04-03T08:45:43;98350.69;;;22.37;18.28
74798;BME280;63326;45.088;7.658;2023-04-03T08:48:39;98346.38;;;22.41;18.37
74798;BME280;63326;45.088;7.658;2023-04-03T08:51:15;98352.38;;;22.43;17.58
74798;BME280;63326;45.088;7.658;2023-04-03T08:54:04;98349.19;;;21.72;18.50
74798;BME280;63326;45.088;7.658;2023-04-03T08:56:34;98347.72;;;21.96;18.23
74798;BME280;63326;45.088;7.658;2023-04-03T08:59:06;98334.63;;;22.40;18.38
74798;BME280;63326;45.088;7.658;2023-04-03T09:01:39;98334.00;;;22.96;17.87
74798;BME280;63326;45.088;7.658;2023-04-03T09:04:13;98331.34;;;23.42;17.38
74798;BME280;63326;45.088;7.658;2023-04-03T09:06:43;98337.06;;;23.86;16.32
74798;BME280;63326;45.088;7.658;2023-04-03T09:09:30;98313.22;;;23.97;16.19
74798;BME280;63326;45.088;7.658;2023-04-03T09:20:30;98322.19;;;22.80;16.06
74798;BME280;63326;45.088;7.658;2023-04-03T09:22:59;98313.31;;;21.95;17.21
74798;BME280;63326;45.088;7.658;2023-04-03T09:25:33;98295.78;;;22.33;16.96
74798;BME280;63326;45.088;7.658;2023-04-03T09:28:03;98304.47;;;22.20;15.61
74798;BME280;63326;45.088;7.658;2023-04-03T09:30:30;98307.72;;;22.17;16.56
74798;BME280;63326;45.088;7.658;2023-04-03T09:32:57;98309.34;;;22.81;16.10
74798;BME280;63326;45.088;7.658;2023-04-03T09:35:32;98309.44;;;23.42;15.64
74798;BME280;63326;45.088;7.658;2023-04-03T09:40:42;98308.88;;;23.85;15.15
74798;BME280;63326;45.088;7.658;2023-04-03T09:43:27;98303.44;;;23.40;15.14
74798;BME280;63326;45.088;7.658;2023-04-03T09:45:55;98291.94;;;23.73;15.61
74798;BME280;63326;45.088;7.658;2023-04-03T09:48:24;98302.78;;;24.09;14.78
74798;BME280;63326;45.088;7.658;2023-04-03T09:53:40;98295.88;;;24.27;14.22
74798;BME280;63326;45.088;7.658;2023-04-03T10:01:33;98274.50;;;24.44;13.28
74798;BME280;63326;45.088;7.658;2023-04-03T10:04:10;98280.00;;;24.34;13.03
74798;BME280;63326;45.088;7.658;2023-04-03T10:09:31;98277.84;;;25.53;12.38
74798;BME280;63326;45.088;7.658;2023-04-03T10:11:59;98274.34;;;26.06;11.97
74798;BME280;63326;45.088;7.658;2023-04-03T10:14:29;98265.47;;;26.76;11.87
74798;BME280;63326;45.088;7.658;2023-04-03T10:17:02;98268.38;;;26.65;12.16
74798;BME280;63326;45.088;7.658;2023-04-03T10:19:46;98256.84;;;27.01;11.25
74798;BME280;63326;45.088;7.658;2023-04-03T10:22:45;98257.91;;;26.49;11.27
74798;BME280;63326;45.088;7.658;2023-04-03T10:28:06;98247.94;;;27.74;11.13
74798;BME280;63326;45.088;7.658;2023-04-03T10:33:39;98246.22;;;27.78;11.48
74798;BME280;63326;45.088;7.658;2023-04-03T10:36:19;98244.09;;;26.30;12.90
74798;BME280;63326;45.088;7.658;2023-04-03T10:46:33;98211.16;;;25.53;13.42
74798;BME280;63326;45.088;7.658;2023-04-03T10:51:47;98216.63;;;26.86;12.83
74798;BME280;63326;45.088;7.658;2023-04-03T10:54:24;98210.72;;;25.94;13.23
74798;BME280;63326;45.088;7.658;2023-04-03T10:57:03;98197.91;;;24.63;14.24
74798;BME280;63326;45.088;7.658;2023-04-03T10:59:48;98205.28;;;26.12;12.91
74798;BME280;63326;45.088;7.658;2023-04-03T11:08:04;98200.38;;;26.71;12.25
74798;BME280;63326;45.088;7.658;2023-04-03T11:10:41;98192.16;;;28.10;11.59
74798;BME280;63326;45.088;7.658;2023-04-03T11:13:19;98183.41;;;27.48;11.41
74798;BME280;63326;45.088;7.658;2023-04-03T11:15:51;98182.72;;;26.58;12.18
74798;BME280;63326;45.088;7.658;2023-04-03T11:18:25;98176.03;;;27.90;11.57
74798;BME280;63326;45.088;7.658;2023-04-03T11:21:00;98179.94;;;28.88;10.46
74798;BME280;63326;45.088;7.658;2023-04-03T11:23:35;98177.19;;;29.64;9.51
74798;BME280;63326;45.088;7.658;2023-04-03T11:26:18;98172.66;;;30.34;9.06
74798;BME280;63326;45.088;7.658;2023-04-03T11:28:45;98161.47;;;30.48;9.06
74798;BME280;63326;45.088;7.658;2023-04-03T11:31:29;98158.25;;;30.80;8.95
74798;BME280;63326;45.088;7.658;2023-04-03T11:34:33;98153.47;;;26.81;11.48
74798;BME280;63326;45.088;7.658;2023-04-03T11:37:28;98150.75;;;25.53;12.24
74798;BME280;63326;45.088;7.658;2023-04-03T11:40:00;98151.84;;;24.65;13.01
74798;BME280;63326;45.088;7.658;2023-04-03T11:42:38;98138.72;;;24.91;13.17
74798;BME280;63326;45.088;7.658;2023-04-03T11:53:54;98132.03;;;30.26;9.20
74798;BME280;63326;45.088;7.658;2023-04-03T12:01:52;98128.06;;;26.70;11.37
74798;BME280;63326;45.088;7.658;2023-04-03T12:04:22;98118.66;;;27.23;10.92
74798;BME280;63326;45.088;7.658;2023-04-03T12:06:53;98098.41;;;27.00;11.10
74798;BME280;63326;45.088;7.658;2023-04-03T12:09:32;98105.97;;;28.32;10.64
74798;BME280;63326;45.088;7.658;2023-04-03T12:12:20;98111.78;;;29.20;10.04
74798;BME280;63326;45.088;7.658;2023-04-03T12:14:48;98089.69;;;30.08;9.32
74798;BME280;63326;45.088;7.658;2023-04-03T12:17:26;98091.78;;;30.98;9.12
74798;BME280;63326;45.088;7.658;2023-04-03T12:19:53;98088.72;;;29.16;9.82
74798;BME280;63326;45.088;7.658;2023-04-03T12:22:21;98077.66;;;28.26;10.55
74798;BME280;63326;45.088;7.658;2023-04-03T12:24:50;98068.00;;;29.36;10.14
74798;BME280;63326;45.088;7.658;2023-04-03T12:27:50;98075.38;;;30.75;9.06
74798;BME280;63326;45.088;7.658;2023-04-03T12:30:26;98081.03;;;30.01;9.39
74798;BME280;63326;45.088;7.658;2023-04-03T12:33:20;98078.06;;;27.56;10.31
74798;BME280;63326;45.088;7.658;2023-04-03T12:41:50;98062.53;;;28.37;10.25
74798;BME280;63326;45.088;7.658;2023-04-03T12:47:19;98054.34;;;29.79;9.55
74798;BME280;63326;45.088;7.658;2023-04-03T12:49:49;98044.88;;;31.48;8.40
74798;BME280;63326;45.088;7.658;2023-04-03T12:52:35;98037.59;;;30.88;8.69
74798;BME280;63326;45.088;7.658;2023-04-03T12:55:24;98039.75;;;30.13;9.30
74798;BME280;63326;45.088;7.658;2023-04-03T12:57:51;98040.88;;;30.03;9.18
74798;BME280;63326;45.088;7.658;2023-04-03T13:00:26;98041.16;;;27.84;10.09
74798;BME280;63326;45.088;7.658;2023-04-03T13:02:54;98023.91;;;28.60;9.90
74798;BME280;63326;45.088;7.658;2023-04-03T13:05:22;98021.53;;;30.03;9.32
74798;BME280;63326;45.088;7.658;2023-04-03T13:07:58;98025.09;;;29.87;9.30
74798;BME280;63326;45.088;7.658;2023-04-03T13:10:25;98006.59;;;28.90;9.65
74798;BME280;63326;45.088;7.658;2023-04-03T13:12:56;98007.03;;;29.15;9.57
74798;BME280;63326;45.088;7.658;2023-04-03T13:15:26;98016.31;;;27.35;10.75
74798;BME280;63326;45.088;7.658;2023-04-03T13:17:54;98006.84;;;27.13;11.02
74798;BME280;63326;45.088;7.658;2023-04-03T13:20:30;98008.97;;;28.83;9.50
74798;BME280;63326;45.088;7.658;2023-04-03T13:23:05;98007.06;;;30.32;8.64
74798;BME280;63326;45.088;7.658;2023-04-03T13:25:39;97994.94;;;31.57;8.43
74798;BME280;63326;45.088;7.658;2023-04-03T13:28:13;97999.94;;;32.14;8.04
74798;BME280;63326;45.088;7.658;2023-04-03T13:30:41;97994.69;;;32.99;7.30
74798;BME280;63326;45.088;7.658;2023-04-03T13:33:28;97998.53;;;33.31;6.53
74798;BME280;63326;45.088;7.658;2023-04-03T13:36:06;97996.19;;;33.82;6.78
74798;BME280;63326;45.088;7.658;2023-04-03T13:38:34;97998.28;;;33.00;6.64
74798;BME280;63326;45.088;7.658;2023-04-03T13:41:20;97983.41;;;34.05;6.13
74798;BME280;63326;45.088;7.658;2023-04-03T13:43:48;97979.00;;;35.87;5.32
74798;BME280;63326;45.088;7.658;2023-04-03T13:48:47;97971.34;;;34.01;6.30
74798;BME280;63326;45.088;7.658;2023-04-03T13:53:53;97974.22;;;34.45;6.22
74798;BME280;63326;45.088;7.658;2023-04-03T13:56:32;97974.66;;;34.19;6.06
74798;BME280;63326;45.088;7.658;2023-04-03T14:04:24;97957.69;;;31.45;7.42
74798;BME280;63326;45.088;7.658;2023-04-03T14:06:52;97971.59;;;30.43;8.43
74798;BME280;63326;45.088;7.658;2023-04-03T14:09:21;97947.03;;;30.33;8.07
74798;BME280;63326;45.088;7.658;2023-04-03T14:11:50;97963.72;;;29.24;8.94
74798;BME280;63326;45.088;7.658;2023-04-03T14:14:24;97967.09;;;28.50;9.33
74798;BME280;63326;45.088;7.658;2023-04-03T14:16:59;97970.06;;;27.73;10.03
74798;BME280;63326;45.088;7.658;2023-04-03T14:19:30;97935.78;;;27.15;10.81
74798;BME280;63326;45.088;7.658;2023-04-03T14:21:58;97948.19;;;26.58;11.53
74798;BME280;63326;45.088;7.658;2023-04-03T14:24:24;97958.19;;;26.67;10.95
74798;BME280;63326;45.088;7.658;2023-04-03T14:26:52;97970.47;;;26.56;11.18
74798;BME280;63326;45.088;7.658;2023-04-03T14:29:20;97943.13;;;25.62;12.33
74798;BME280;63326;45.088;7.658;2023-04-03T14:31:48;97962.78;;;25.50;13.31
74798;BME280;63326;45.088;7.658;2023-04-03T14:34:26;97966.22;;;25.18;13.66
74798;BME280;63326;45.088;7.658;2023-04-03T14:36:52;97967.81;;;24.48;14.10
74798;BME280;63326;45.088;7.658;2023-04-03T14:39:19;97951.28;;;23.95;14.77
74798;BME280;63326;45.088;7.658;2023-04-03T14:41:46;97954.25;;;23.98;14.21
74798;BME280;63326;45.088;7.658;2023-04-03T14:44:13;97932.72;;;23.87;14.68